sensor_id;sensor_type;location;lat;lon;timestamp;P1;durP1;ratioP1;P2;durP2;ratioP2
3819;SDS011;1925;51.356;9.530;2023-04-28T00:01:22;6.00;;;3.70;;
3819;SDS011;1925;51.356;9.530;2023-04-28T00:03:47;5.73;;;3.43;;
3819;SDS011;1925;51.356;9.530;2023-04-28T00:06:13;7.53;;;4.37;;
3819;SDS011;1925;51.356;9.530;2023-04-28T00:08:40;5.65;;;4.03;;
3819;SDS011;1925;51.356;9.530;2023-04-28T00:11:09;8.00;;;3.88;;
3819;SDS011;1925;51.356;9.530;2023-04-28T00:13:35;6.45;;;3.75;;
3819;SDS011;1925;51.356;9.530;2023-04-28T00:16:01;4.80;;;4.32;;
3819;SDS011;1925;51.356;9.530;2023-04-28T00:18:27;5.57;;;3.90;;
3819;SDS011;1925;51.356;9.530;2023-04-28T00:20:53;4.60;;;3.80;;
3819;SDS011;1925;51.356;9.530;2023-04-28T00:23:19;5.03;;;3.78;;
3819;SDS011;1925;51.356;9.530;2023-04-28T00:25:52;6.78;;;4.25;;
3819;SDS011;1925;51.356;9.530;2023-04-28T00:28:18;4.13;;;3.72;;
3819;SDS011;1925;51.356;9.530;2023-04-28T00:30:44;5.87;;;3.43;;
3819;SDS011;1925;51.356;9.530;2023-04-28T00:33:11;5.65;;;3.95;;
3819;SDS011;1925;51.356;9.530;2023-04-28T00:35:37;3.67;;;3.25;;
3819;SDS011;1925;51.356;9.530;2023-04-28T00:38:03;6.67;;;4.27;;
3819;SDS011;1925;51.356;9.530;2023-04-28T00:40:35;4.50;;;3.37;;
3819;SDS011;1925;51.356;9.530;2023-04-28T00:43:02;3.80;;;3.20;;
3819;SDS011;1925;51.356;9.530;2023-04-28T00:45:28;4.82;;;3.53;;
3819;SDS011;1925;51.356;9.530;2023-04-28T00:47:54;5.25;;;3.92;;
3819;SDS011;1925;51.356;9.530;2023-04-28T00:50:20;6.10;;;3.77;;
3819;SDS011;1925;51.356;9.530;2023-04-28T00:52:47;5.30;;;3.13;;
3819;SDS011;1925;51.356;9.530;2023-04-28T00:55:14;9.63;;;3.55;;
3819;SDS011;1925;51.356;9.530;2023-04-28T00:57:40;8.35;;;3.90;;
3819;SDS011;1925;51.356;9.530;2023-04-28T01:00:06;6.85;;;3.85;;
3819;SDS011;1925;51.356;9.530;2023-04-28T01:02:33;4.30;;;3.40;;
3819;SDS011;1925;51.356;9.530;2023-04-28T01:04:59;5.28;;;3.88;;
3819;SDS011;1925;51.356;9.530;2023-04-28T01:07:26;5.07;;;4.20;;
3819;SDS011;1925;51.356;9.530;2023-04-28T01:09:52;7.75;;;3.58;;
3819;SDS011;1925;51.356;9.530;2023-04-28T01:12:18;4.30;;;3.90;;
3819;SDS011;1925;51.356;9.530;2023-04-28T01:14:45;7.75;;;4.13;;
3819;SDS011;1925;51.356;9.530;2023-04-28T01:17:11;4.30;;;3.30;;
3819;SDS011;1925;51.356;9.530;2023-04-28T01:19:37;5.93;;;4.47;;
3819;SDS011;1925;51.356;9.530;2023-04-28T01:22:03;7.93;;;4.50;;
3819;SDS011;1925;51.356;9.530;2023-04-28T01:24:29;7.50;;;4.60;;
3819;SDS011;1925;51.356;9.530;2023-04-28T01:26:55;7.70;;;3.67;;
3819;SDS011;1925;51.356;9.530;2023-04-28T01:29:21;4.97;;;4.47;;
3819;SDS011;1925;51.356;9.530;2023-04-28T01:31:47;4.33;;;3.40;;
3819;SDS011;1925;51.356;9.530;2023-04-28T01:34:13;7.10;;;4.37;;
3819;SDS011;1925;51.356;9.530;2023-04-28T01:36:39;6.50;;;3.97;;
3819;SDS011;1925;51.356;9.530;2023-04-28T01:39:05;6.53;;;4.27;;
3819;SDS011;1925;51.356;9.530;2023-04-28T01:41:31;5.50;;;3.75;;
3819;SDS011;1925;51.356;9.530;2023-04-28T01:44:00;6.95;;;4.78;;
3819;SDS011;1925;51.356;9.530;2023-04-28T01:46:26;6.70;;;3.95;;
3819;SDS011;1925;51.356;9.530;2023-04-28T01:48:52;6.20;;;3.87;;
3819;SDS011;1925;51.356;9.530;2023-04-28T01:51:18;7.70;;;4.93;;
3819;SDS011;1925;51.356;9.530;2023-04-28T01:53:44;9.35;;;3.50;;
3819;SDS011;1925;51.356;9.530;2023-04-28T01:56:10;6.40;;;3.90;;
3819;SDS011;1925;51.356;9.530;2023-04-28T01:58:36;7.13;;;4.77;;
3819;SDS011;1925;51.356;9.530;2023-04-28T02:01:02;9.77;;;4.20;;
3819;SDS011;1925;51.356;9.530;2023-04-28T02:03:28;7.05;;;4.97;;
3819;SDS011;1925;51.356;9.530;2023-04-28T02:05:54;5.43;;;3.80;;
3819;SDS011;1925;51.356;9.530;2023-04-28T02:08:20;6.20;;;4.47;;
3819;SDS011;1925;51.356;9.530;2023-04-28T02:10:46;8.60;;;4.50;;
3819;SDS011;1925;51.356;9.530;2023-04-28T02:13:12;5.75;;;5.22;;
3819;SDS011;1925;51.356;9.530;2023-04-28T02:15:39;8.23;;;4.57;;
3819;SDS011;1925;51.356;9.530;2023-04-28T02:18:05;8.15;;;5.55;;
3819;SDS011;1925;51.356;9.530;2023-04-28T02:20:31;6.60;;;5.07;;
3819;SDS011;1925;51.356;9.530;2023-04-28T02:22:57;6.00;;;4.57;;
3819;SDS011;1925;51.356;9.530;2023-04-28T02:25:23;6.70;;;4.67;;
3819;SDS011;1925;51.356;9.530;2023-04-28T02:27:49;5.90;;;4.67;;
3819;SDS011;1925;51.356;9.530;2023-04-28T02:30:15;8.03;;;5.30;;
3819;SDS011;1925;51.356;9.530;2023-04-28T02:32:41;6.18;;;5.30;;
3819;SDS011;1925;51.356;9.530;2023-04-28T02:35:07;6.87;;;5.43;;
3819;SDS011;1925;51.356;9.530;2023-04-28T02:37:33;5.37;;;4.87;;
3819;SDS011;1925;51.356;9.530;2023-04-28T02:39:59;6.47;;;4.77;;
3819;SDS011;1925;51.356;9.530;2023-04-28T02:42:25;5.60;;;4.90;;
3819;SDS011;1925;51.356;9.530;2023-04-28T02:44:51;9.20;;;5.23;;
3819;SDS011;1925;51.356;9.530;2023-04-28T02:47:17;9.10;;;5.27;;
3819;SDS011;1925;51.356;9.530;2023-04-28T02:49:43;7.27;;;5.40;;
3819;SDS011;1925;51.356;9.530;2023-04-28T02:52:08;6.30;;;4.47;;
3819;SDS011;1925;51.356;9.530;2023-04-28T02:54:36;11.93;;;4.80;;
3819;SDS011;1925;51.356;9.530;2023-04-28T02:57:02;5.73;;;4.70;;
3819;SDS011;1925;51.356;9.530;2023-04-28T02:59:28;6.10;;;5.00;;
3819;SDS011;1925;51.356;9.530;2023-04-28T03:01:55;5.90;;;5.25;;
3819;SDS011;1925;51.356;9.530;2023-04-28T03:04:21;7.18;;;4.85;;
3819;SDS011;1925;51.356;9.530;2023-04-28T03:06:47;6.35;;;5.10;;
3819;SDS011;1925;51.356;9.530;2023-04-28T03:09:14;6.03;;;5.03;;
3819;SDS011;1925;51.356;9.530;2023-04-28T03:11:40;7.45;;;4.95;;
3819;SDS011;1925;51.356;9.530;2023-04-28T03:14:06;8.90;;;4.93;;
3819;SDS011;1925;51.356;9.530;2023-04-28T03:16:32;7.00;;;4.97;;
3819;SDS011;1925;51.356;9.530;2023-04-28T03:18:58;5.50;;;4.43;;
3819;SDS011;1925;51.356;9.530;2023-04-28T03:21:24;7.43;;;5.50;;
3819;SDS011;1925;51.356;9.530;2023-04-28T03:23:51;8.50;;;5.78;;
3819;SDS011;1925;51.356;9.530;2023-04-28T03:26:17;6.90;;;5.10;;
3819;SDS011;1925;51.356;9.530;2023-04-28T03:28:43;7.10;;;5.17;;
3819;SDS011;1925;51.356;9.530;2023-04-28T03:31:09;8.13;;;5.30;;
3819;SDS011;1925;51.356;9.530;2023-04-28T03:33:35;10.10;;;7.13;;
3819;SDS011;1925;51.356;9.530;2023-04-28T03:36:01;12.53;;;6.20;;
3819;SDS011;1925;51.356;9.530;2023-04-28T03:38:27;8.17;;;6.17;;
3819;SDS011;1925;51.356;9.530;2023-04-28T03:40:53;10.23;;;5.63;;
3819;SDS011;1925;51.356;9.530;2023-04-28T03:43:19;6.00;;;5.33;;
3819;SDS011;1925;51.356;9.530;2023-04-28T03:45:45;7.10;;;5.10;;
3819;SDS011;1925;51.356;9.530;2023-04-28T03:48:11;6.67;;;5.13;;
3819;SDS011;1925;51.356;9.530;2023-04-28T03:50:37;6.90;;;5.20;;
3819;SDS011;1925;51.356;9.530;2023-04-28T03:53:04;5.50;;;5.00;;
3819;SDS011;1925;51.356;9.530;2023-04-28T03:55:30;6.80;;;6.10;;
3819;SDS011;1925;51.356;9.530;2023-04-28T03:57:56;8.20;;;5.70;;
3819;SDS011;1925;51.356;9.530;2023-04-28T04:00:22;6.70;;;5.60;;
3819;SDS011;1925;51.356;9.530;2023-04-28T04:02:48;8.10;;;6.27;;
3819;SDS011;1925;51.356;9.530;2023-04-28T04:05:14;7.00;;;6.00;;
3819;SDS011;1925;51.356;9.530;2023-04-28T04:07:40;15.23;;;6.55;;
3819;SDS011;1925;51.356;9.530;2023-04-28T04:10:06;8.13;;;7.27;;
3819;SDS011;1925;51.356;9.530;2023-04-28T04:12:32;15.20;;;7.50;;
3819;SDS011;1925;51.356;9.530;2023-04-28T04:14:58;8.23;;;6.70;;
3819;SDS011;1925;51.356;9.530;2023-04-28T04:17:24;8.73;;;6.87;;
3819;SDS011;1925;51.356;9.530;2023-04-28T04:19:50;10.30;;;7.43;;
3819;SDS011;1925;51.356;9.530;2023-04-28T04:22:16;15.93;;;6.60;;
3819;SDS011;1925;51.356;9.530;2023-04-28T04:24:42;13.43;;;7.37;;
3819;SDS011;1925;51.356;9.530;2023-04-28T04:27:08;9.27;;;6.53;;
3819;SDS011;1925;51.356;9.530;2023-04-28T04:29:34;7.65;;;6.38;;
3819;SDS011;1925;51.356;9.530;2023-04-28T04:32:00;8.35;;;6.78;;
3819;SDS011;1925;51.356;9.530;2023-04-28T04:34:26;8.73;;;6.40;;
3819;SDS011;1925;51.356;9.530;2023-04-28T04:36:52;10.07;;;7.63;;
3819;SDS011;1925;51.356;9.530;2023-04-28T04:39:18;10.63;;;8.07;;
3819;SDS011;1925;51.356;9.530;2023-04-28T04:41:44;9.97;;;6.40;;
3819;SDS011;1925;51.356;9.530;2023-04-28T04:44:10;9.13;;;6.35;;
3819;SDS011;1925;51.356;9.530;2023-04-28T04:46:36;9.85;;;6.80;;
3819;SDS011;1925;51.356;9.530;2023-04-28T04:49:02;12.83;;;7.30;;
3819;SDS011;1925;51.356;9.530;2023-04-28T04:51:28;9.23;;;6.70;;
3819;SDS011;1925;51.356;9.530;2023-04-28T04:53:54;7.63;;;6.77;;
3819;SDS011;1925;51.356;9.530;2023-04-28T04:56:20;8.00;;;6.80;;
3819;SDS011;1925;51.356;9.530;2023-04-28T04:58:46;9.25;;;7.22;;
3819;SDS011;1925;51.356;9.530;2023-04-28T05:01:12;12.00;;;7.20;;
3819;SDS011;1925;51.356;9.530;2023-04-28T05:03:38;12.00;;;7.80;;
3819;SDS011;1925;51.356;9.530;2023-04-28T05:06:04;8.93;;;7.40;;
3819;SDS011;1925;51.356;9.530;2023-04-28T05:08:30;12.80;;;7.50;;
3819;SDS011;1925;51.356;9.530;2023-04-28T05:10:56;8.87;;;7.40;;
3819;SDS011;1925;51.356;9.530;2023-04-28T05:13:23;10.00;;;8.33;;
3819;SDS011;1925;51.356;9.530;2023-04-28T05:15:49;8.35;;;7.13;;
3819;SDS011;1925;51.356;9.530;2023-04-28T05:18:15;9.17;;;7.60;;
3819;SDS011;1925;51.356;9.530;2023-04-28T05:20:41;9.23;;;7.80;;
3819;SDS011;1925;51.356;9.530;2023-04-28T05:23:07;9.93;;;6.93;;
3819;SDS011;1925;51.356;9.530;2023-04-28T05:25:33;11.35;;;8.10;;
3819;SDS011;1925;51.356;9.530;2023-04-28T05:27:59;14.67;;;9.17;;
3819;SDS011;1925;51.356;9.530;2023-04-28T05:30:31;13.52;;;8.15;;
3819;SDS011;1925;51.356;9.530;2023-04-28T05:32:57;10.23;;;7.20;;
3819;SDS011;1925;51.356;9.530;2023-04-28T05:35:23;11.60;;;8.07;;
3819;SDS011;1925;51.356;9.530;2023-04-28T05:37:48;8.40;;;7.50;;
3819;SDS011;1925;51.356;9.530;2023-04-28T05:40:15;10.65;;;7.80;;
3819;SDS011;1925;51.356;9.530;2023-04-28T05:42:41;9.03;;;8.17;;
3819;SDS011;1925;51.356;9.530;2023-04-28T05:45:07;9.80;;;7.93;;
3819;SDS011;1925;51.356;9.530;2023-04-28T05:47:33;8.60;;;7.80;;
3819;SDS011;1925;51.356;9.530;2023-04-28T05:49:59;11.10;;;7.20;;
3819;SDS011;1925;51.356;9.530;2023-04-28T05:52:25;12.33;;;8.07;;
3819;SDS011;1925;51.356;9.530;2023-04-28T05:54:51;8.87;;;7.97;;
3819;SDS011;1925;51.356;9.530;2023-04-28T05:57:16;8.73;;;7.83;;
3819;SDS011;1925;51.356;9.530;2023-04-28T05:59:42;9.27;;;8.23;;
3819;SDS011;1925;51.356;9.530;2023-04-28T06:02:08;15.80;;;8.63;;
3819;SDS011;1925;51.356;9.530;2023-04-28T06:04:34;11.57;;;8.65;;
3819;SDS011;1925;51.356;9.530;2023-04-28T06:07:00;11.30;;;8.95;;
3819;SDS011;1925;51.356;9.530;2023-04-28T06:09:26;13.37;;;8.13;;
3819;SDS011;1925;51.356;9.530;2023-04-28T06:11:53;15.20;;;9.50;;
3819;SDS011;1925;51.356;9.530;2023-04-28T06:14:20;12.10;;;8.40;;
3819;SDS011;1925;51.356;9.530;2023-04-28T06:16:46;11.27;;;7.80;;
3819;SDS011;1925;51.356;9.530;2023-04-28T06:19:12;11.37;;;7.97;;
3819;SDS011;1925;51.356;9.530;2023-04-28T06:21:39;12.55;;;8.27;;
3819;SDS011;1925;51.356;9.530;2023-04-28T06:24:05;9.30;;;8.40;;
3819;SDS011;1925;51.356;9.530;2023-04-28T06:26:31;16.27;;;9.00;;
3819;SDS011;1925;51.356;9.530;2023-04-28T06:28:57;10.90;;;8.10;;
3819;SDS011;1925;51.356;9.530;2023-04-28T06:31:23;10.00;;;8.70;;
3819;SDS011;1925;51.356;9.530;2023-04-28T06:33:49;12.73;;;9.33;;
3819;SDS011;1925;51.356;9.530;2023-04-28T06:36:15;11.27;;;8.60;;
3819;SDS011;1925;51.356;9.530;2023-04-28T06:38:42;17.10;;;9.40;;
3819;SDS011;1925;51.356;9.530;2023-04-28T06:41:08;10.07;;;7.70;;
3819;SDS011;1925;51.356;9.530;2023-04-28T06:43:35;16.20;;;9.88;;
3819;SDS011;1925;51.356;9.530;2023-04-28T06:46:01;12.48;;;8.43;;
3819;SDS011;1925;51.356;9.530;2023-04-28T06:48:27;13.20;;;8.23;;
3819;SDS011;1925;51.356;9.530;2023-04-28T06:50:53;12.82;;;8.85;;
3819;SDS011;1925;51.356;9.530;2023-04-28T06:53:19;9.83;;;8.43;;
3819;SDS011;1925;51.356;9.530;2023-04-28T06:55:45;10.05;;;8.40;;
3819;SDS011;1925;51.356;9.530;2023-04-28T06:58:11;9.95;;;8.55;;
3819;SDS011;1925;51.356;9.530;2023-04-28T07:00:37;9.63;;;8.63;;
3819;SDS011;1925;51.356;9.530;2023-04-28T07:03:03;14.52;;;10.00;;
3819;SDS011;1925;51.356;9.530;2023-04-28T07:05:29;14.32;;;10.07;;
3819;SDS011;1925;51.356;9.530;2023-04-28T07:07:55;12.90;;;9.37;;
3819;SDS011;1925;51.356;9.530;2023-04-28T07:10:21;10.33;;;8.60;;
3819;SDS011;1925;51.356;9.530;2023-04-28T07:12:48;9.23;;;8.30;;
3819;SDS011;1925;51.356;9.530;2023-04-28T07:15:16;13.75;;;9.57;;
3819;SDS011;1925;51.356;9.530;2023-04-28T07:17:42;14.47;;;9.00;;
3819;SDS011;1925;51.356;9.530;2023-04-28T07:20:08;10.53;;;8.47;;
3819;SDS011;1925;51.356;9.530;2023-04-28T07:22:34;12.90;;;9.80;;
3819;SDS011;1925;51.356;9.530;2023-04-28T07:25:00;18.97;;;10.07;;
3819;SDS011;1925;51.356;9.530;2023-04-28T07:27:25;9.93;;;8.90;;
3819;SDS011;1925;51.356;9.530;2023-04-28T07:29:51;10.23;;;9.23;;
3819;SDS011;1925;51.356;9.530;2023-04-28T07:32:17;12.70;;;8.23;;
3819;SDS011;1925;51.356;9.530;2023-04-28T07:34:43;14.80;;;10.33;;
3819;SDS011;1925;51.356;9.530;2023-04-28T07:37:09;13.57;;;10.10;;
3819;SDS011;1925;51.356;9.530;2023-04-28T07:39:35;11.13;;;9.68;;
3819;SDS011;1925;51.356;9.530;2023-04-28T07:42:03;17.58;;;10.00;;
3819;SDS011;1925;51.356;9.530;2023-04-28T07:44:29;10.55;;;9.05;;
3819;SDS011;1925;51.356;9.530;2023-04-28T07:46:55;12.07;;;10.32;;
3819;SDS011;1925;51.356;9.530;2023-04-28T07:49:21;11.70;;;10.07;;
3819;SDS011;1925;51.356;9.530;2023-04-28T07:51:47;11.45;;;9.93;;
3819;SDS011;1925;51.356;9.530;2023-04-28T07:54:13;14.35;;;11.70;;
3819;SDS011;1925;51.356;9.530;2023-04-28T07:56:39;12.13;;;10.82;;
3819;SDS011;1925;51.356;9.530;2023-04-28T07:59:05;11.20;;;10.10;;
3819;SDS011;1925;51.356;9.530;2023-04-28T08:01:31;13.23;;;9.40;;
3819;SDS011;1925;51.356;9.530;2023-04-28T08:03:57;9.83;;;8.80;;
3819;SDS011;1925;51.356;9.530;2023-04-28T08:06:23;13.80;;;9.63;;
3819;SDS011;1925;51.356;9.530;2023-04-28T08:08:49;12.17;;;9.67;;
3819;SDS011;1925;51.356;9.530;2023-04-28T08:11:15;10.68;;;9.50;;
3819;SDS011;1925;51.356;9.530;2023-04-28T08:13:41;11.27;;;8.87;;
3819;SDS011;1925;51.356;9.530;2023-04-28T08:16:07;12.52;;;11.23;;
3819;SDS011;1925;51.356;9.530;2023-04-28T08:18:34;12.10;;;10.10;;
3819;SDS011;1925;51.356;9.530;2023-04-28T08:21:00;13.10;;;9.73;;
3819;SDS011;1925;51.356;9.530;2023-04-28T08:23:26;16.30;;;10.03;;
3819;SDS011;1925;51.356;9.530;2023-04-28T08:25:54;15.27;;;10.15;;
3819;SDS011;1925;51.356;9.530;2023-04-28T08:28:20;13.63;;;11.50;;
3819;SDS011;1925;51.356;9.530;2023-04-28T08:30:46;13.20;;;10.57;;
3819;SDS011;1925;51.356;9.530;2023-04-28T08:33:12;17.45;;;9.98;;
3819;SDS011;1925;51.356;9.530;2023-04-28T08:35:38;11.70;;;10.30;;
3819;SDS011;1925;51.356;9.530;2023-04-28T08:38:05;11.20;;;9.73;;
3819;SDS011;1925;51.356;9.530;2023-04-28T08:40:31;11.95;;;10.75;;
3819;SDS011;1925;51.356;9.530;2023-04-28T08:42:58;13.73;;;10.97;;
3819;SDS011;1925;51.356;9.530;2023-04-28T08:45:24;13.23;;;10.77;;
3819;SDS011;1925;51.356;9.530;2023-04-28T08:47:50;14.33;;;10.20;;
3819;SDS011;1925;51.356;9.530;2023-04-28T08:50:19;14.82;;;11.13;;
3819;SDS011;1925;51.356;9.530;2023-04-28T08:52:46;11.15;;;9.48;;
3819;SDS011;1925;51.356;9.530;2023-04-28T08:55:12;11.73;;;10.00;;
3819;SDS011;1925;51.356;9.530;2023-04-28T08:57:48;11.40;;;9.68;;
3819;SDS011;1925;51.356;9.530;2023-04-28T09:00:18;12.55;;;9.63;;
3819;SDS011;1925;51.356;9.530;2023-04-28T09:02:44;13.13;;;11.33;;
3819;SDS011;1925;51.356;9.530;2023-04-28T09:05:10;16.10;;;9.90;;
3819;SDS011;1925;51.356;9.530;2023-04-28T09:07:36;11.93;;;9.60;;
3819;SDS011;1925;51.356;9.530;2023-04-28T09:10:44;14.63;;;10.10;;
3819;SDS011;1925;51.356;9.530;2023-04-28T09:12:52;12.27;;;9.65;;
3819;SDS011;1925;51.356;9.530;2023-04-28T09:15:38;12.27;;;9.57;;
3819;SDS011;1925;51.356;9.530;2023-04-28T09:18:09;14.68;;;10.73;;
3819;SDS011;1925;51.356;9.530;2023-04-28T09:20:39;15.38;;;10.02;;
3819;SDS011;1925;51.356;9.530;2023-04-28T09:23:12;11.33;;;10.13;;
3819;SDS011;1925;51.356;9.530;2023-04-28T09:25:38;10.13;;;9.15;;
3819;SDS011;1925;51.356;9.530;2023-04-28T09:28:18;10.30;;;8.47;;
3819;SDS011;1925;51.356;9.530;2023-04-28T09:30:45;11.65;;;9.52;;
3819;SDS011;1925;51.356;9.530;2023-04-28T09:33:11;12.75;;;9.63;;
3819;SDS011;1925;51.356;9.530;2023-04-28T09:35:38;12.37;;;9.87;;
3819;SDS011;1925;51.356;9.530;2023-04-28T09:38:04;12.30;;;10.35;;
3819;SDS011;1925;51.356;9.530;2023-04-28T09:40:30;12.88;;;10.07;;
3819;SDS011;1925;51.356;9.530;2023-04-28T09:42:58;15.98;;;9.52;;
3819;SDS011;1925;51.356;9.530;2023-04-28T09:45:24;11.23;;;9.57;;
3819;SDS011;1925;51.356;9.530;2023-04-28T09:47:51;11.55;;;10.35;;
3819;SDS011;1925;51.356;9.530;2023-04-28T09:50:16;16.70;;;11.20;;
3819;SDS011;1925;51.356;9.530;2023-04-28T09:52:43;17.17;;;10.10;;
3819;SDS011;1925;51.356;9.530;2023-04-28T09:55:10;11.93;;;10.35;;
3819;SDS011;1925;51.356;9.530;2023-04-28T09:57:37;21.15;;;11.57;;
3819;SDS011;1925;51.356;9.530;2023-04-28T10:00:04;12.13;;;10.75;;
3819;SDS011;1925;51.356;9.530;2023-04-28T10:02:30;16.02;;;11.80;;
3819;SDS011;1925;51.356;9.530;2023-04-28T10:04:56;13.38;;;11.00;;
3819;SDS011;1925;51.356;9.530;2023-04-28T10:07:22;16.27;;;11.75;;
3819;SDS011;1925;51.356;9.530;2023-04-28T10:09:49;11.85;;;10.63;;
3819;SDS011;1925;51.356;9.530;2023-04-28T10:12:16;12.02;;;10.82;;
3819;SDS011;1925;51.356;9.530;2023-04-28T10:14:42;19.98;;;10.85;;
3819;SDS011;1925;51.356;9.530;2023-04-28T10:17:15;12.32;;;10.02;;
3819;SDS011;1925;51.356;9.530;2023-04-28T10:19:42;11.75;;;10.50;;
3819;SDS011;1925;51.356;9.530;2023-04-28T10:25:05;13.77;;;10.40;;
3819;SDS011;1925;51.356;9.530;2023-04-28T10:27:33;13.90;;;11.02;;
3819;SDS011;1925;51.356;9.530;2023-04-28T10:30:09;15.38;;;11.23;;
3819;SDS011;1925;51.356;9.530;2023-04-28T10:32:35;11.95;;;9.65;;
3819;SDS011;1925;51.356;9.530;2023-04-28T10:43:01;11.45;;;9.05;;
3819;SDS011;1925;51.356;9.530;2023-04-28T10:48:13;17.15;;;10.93;;
3819;SDS011;1925;51.356;9.530;2023-04-28T10:51:26;11.27;;;10.18;;
3819;SDS011;1925;51.356;9.530;2023-04-28T10:56:16;9.95;;;8.98;;
3819;SDS011;1925;51.356;9.530;2023-04-28T10:58:43;14.77;;;10.38;;
3819;SDS011;1925;51.356;9.530;2023-04-28T11:03:57;12.05;;;9.52;;
3819;SDS011;1925;51.356;9.530;2023-04-28T11:06:34;13.65;;;10.13;;
3819;SDS011;1925;51.356;9.530;2023-04-28T11:11:27;11.90;;;9.98;;
3819;SDS011;1925;51.356;9.530;2023-04-28T11:13:54;10.27;;;8.63;;
3819;SDS011;1925;51.356;9.530;2023-04-28T11:16:22;13.90;;;10.05;;
3819;SDS011;1925;51.356;9.530;2023-04-28T11:18:49;16.15;;;11.18;;
3819;SDS011;1925;51.356;9.530;2023-04-28T11:21:16;11.95;;;10.18;;
3819;SDS011;1925;51.356;9.530;2023-04-28T11:23:42;12.02;;;9.55;;
3819;SDS011;1925;51.356;9.530;2023-04-28T11:26:09;14.52;;;11.18;;
3819;SDS011;1925;51.356;9.530;2023-04-28T11:28:35;13.50;;;10.18;;
3819;SDS011;1925;51.356;9.530;2023-04-28T11:31:11;11.25;;;9.57;;
3819;SDS011;1925;51.356;9.530;2023-04-28T11:33:37;11.32;;;9.38;;
3819;SDS011;1925;51.356;9.530;2023-04-28T11:36:04;11.23;;;9.82;;
3819;SDS011;1925;51.356;9.530;2023-04-28T11:38:41;13.52;;;10.50;;
3819;SDS011;1925;51.356;9.530;2023-04-28T11:41:07;15.18;;;10.20;;
3819;SDS011;1925;51.356;9.530;2023-04-28T11:43:33;12.57;;;10.50;;
3819;SDS011;1925;51.356;9.530;2023-04-28T11:45:59;12.10;;;9.43;;
3819;SDS011;1925;51.356;9.530;2023-04-28T11:48:25;12.90;;;9.83;;
3819;SDS011;1925;51.356;9.530;2023-04-28T11:50:51;10.55;;;9.52;;
3819;SDS011;1925;51.356;9.530;2023-04-28T11:53:17;11.00;;;9.63;;
3819;SDS011;1925;51.356;9.530;2023-04-28T11:55:44;13.45;;;9.07;;
3819;SDS011;1925;51.356;9.530;2023-04-28T11:58:18;10.53;;;9.43;;
3819;SDS011;1925;51.356;9.530;2023-04-28T12:01:07;12.18;;;10.05;;
3819;SDS011;1925;51.356;9.530;2023-04-28T12:03:41;11.15;;;8.75;;
3819;SDS011;1925;51.356;9.530;2023-04-28T12:06:07;11.13;;;8.80;;
3819;SDS011;1925;51.356;9.530;2023-04-28T12:08:33;9.50;;;8.33;;
3819;SDS011;1925;51.356;9.530;2023-04-28T12:11:06;12.35;;;8.98;;
3819;SDS011;1925;51.356;9.530;2023-04-28T12:13:33;9.75;;;7.53;;
3819;SDS011;1925;51.356;9.530;2023-04-28T12:16:00;13.38;;;8.90;;
3819;SDS011;1925;51.356;9.530;2023-04-28T12:18:27;8.15;;;7.13;;
3819;SDS011;1925;51.356;9.530;2023-04-28T12:20:53;8.73;;;7.83;;
3819;SDS011;1925;51.356;9.530;2023-04-28T12:23:32;13.07;;;9.32;;
3819;SDS011;1925;51.356;9.530;2023-04-28T12:25:58;12.32;;;8.05;;
3819;SDS011;1925;51.356;9.530;2023-04-28T12:28:35;12.90;;;7.80;;
3819;SDS011;1925;51.356;9.530;2023-04-28T12:31:02;9.30;;;7.93;;
3819;SDS011;1925;51.356;9.530;2023-04-28T12:33:29;15.00;;;8.80;;
3819;SDS011;1925;51.356;9.530;2023-04-28T12:35:55;9.50;;;8.50;;
3819;SDS011;1925;51.356;9.530;2023-04-28T12:38:21;10.43;;;8.80;;
3819;SDS011;1925;51.356;9.530;2023-04-28T12:40:47;9.23;;;8.33;;
3819;SDS011;1925;51.356;9.530;2023-04-28T12:43:13;11.77;;;9.57;;
3819;SDS011;1925;51.356;9.530;2023-04-28T12:45:39;14.23;;;9.90;;
3819;SDS011;1925;51.356;9.530;2023-04-28T12:48:06;11.63;;;10.43;;
3819;SDS011;1925;51.356;9.530;2023-04-28T12:50:32;17.00;;;10.80;;
3819;SDS011;1925;51.356;9.530;2023-04-28T12:52:58;12.50;;;9.97;;
3819;SDS011;1925;51.356;9.530;2023-04-28T12:55:24;10.63;;;9.53;;
3819;SDS011;1925;51.356;9.530;2023-04-28T12:57:51;14.00;;;10.10;;
3819;SDS011;1925;51.356;9.530;2023-04-28T13:00:17;13.83;;;9.20;;
3819;SDS011;1925;51.356;9.530;2023-04-28T13:02:47;13.30;;;10.03;;
3819;SDS011;1925;51.356;9.530;2023-04-28T13:05:13;15.65;;;10.10;;
3819;SDS011;1925;51.356;9.530;2023-04-28T13:07:39;10.43;;;9.03;;
3819;SDS011;1925;51.356;9.530;2023-04-28T13:10:05;11.93;;;10.70;;
3819;SDS011;1925;51.356;9.530;2023-04-28T13:12:32;11.10;;;10.00;;
3819;SDS011;1925;51.356;9.530;2023-04-28T13:15:00;13.83;;;10.10;;
3819;SDS011;1925;51.356;9.530;2023-04-28T13:17:26;15.97;;;10.60;;
3819;SDS011;1925;51.356;9.530;2023-04-28T13:19:52;14.77;;;10.38;;
3819;SDS011;1925;51.356;9.530;2023-04-28T13:22:18;10.60;;;9.48;;
3819;SDS011;1925;51.356;9.530;2023-04-28T13:24:45;12.43;;;10.52;;
3819;SDS011;1925;51.356;9.530;2023-04-28T13:27:11;18.42;;;11.90;;
3819;SDS011;1925;51.356;9.530;2023-04-28T13:29:38;20.10;;;12.07;;
3819;SDS011;1925;51.356;9.530;2023-04-28T13:32:04;12.85;;;11.57;;
3819;SDS011;1925;51.356;9.530;2023-04-28T13:34:30;12.00;;;10.35;;
3819;SDS011;1925;51.356;9.530;2023-04-28T13:36:56;13.17;;;10.77;;
3819;SDS011;1925;51.356;9.530;2023-04-28T13:39:22;14.70;;;11.33;;
3819;SDS011;1925;51.356;9.530;2023-04-28T13:41:48;12.48;;;10.15;;
3819;SDS011;1925;51.356;9.530;2023-04-28T13:44:14;12.90;;;11.60;;
3819;SDS011;1925;51.356;9.530;2023-04-28T13:46:40;11.30;;;10.20;;
3819;SDS011;1925;51.356;9.530;2023-04-28T13:49:08;12.68;;;10.90;;
3819;SDS011;1925;51.356;9.530;2023-04-28T13:51:34;9.63;;;8.63;;
3819;SDS011;1925;51.356;9.530;2023-04-28T13:54:00;11.95;;;10.05;;
3819;SDS011;1925;51.356;9.530;2023-04-28T13:56:29;12.32;;;11.02;;
3819;SDS011;1925;51.356;9.530;2023-04-28T13:58:55;12.63;;;10.27;;
3819;SDS011;1925;51.356;9.530;2023-04-28T14:01:21;13.50;;;10.73;;
3819;SDS011;1925;51.356;9.530;2023-04-28T14:03:49;12.93;;;9.93;;
3819;SDS011;1925;51.356;9.530;2023-04-28T14:06:15;11.80;;;10.60;;
3819;SDS011;1925;51.356;9.530;2023-04-28T14:08:41;14.37;;;10.60;;
3819;SDS011;1925;51.356;9.530;2023-04-28T14:11:07;16.37;;;11.40;;
3819;SDS011;1925;51.356;9.530;2023-04-28T14:13:33;13.23;;;11.17;;
3819;SDS011;1925;51.356;9.530;2023-04-28T14:15:59;12.30;;;10.43;;
3819;SDS011;1925;51.356;9.530;2023-04-28T14:18:26;12.98;;;10.45;;
3819;SDS011;1925;51.356;9.530;2023-04-28T14:20:52;16.83;;;11.13;;
3819;SDS011;1925;51.356;9.530;2023-04-28T14:23:19;12.10;;;10.67;;
3819;SDS011;1925;51.356;9.530;2023-04-28T14:25:45;12.67;;;11.10;;
3819;SDS011;1925;51.356;9.530;2023-04-28T14:28:11;12.37;;;10.50;;
3819;SDS011;1925;51.356;9.530;2023-04-28T14:30:37;14.33;;;10.87;;
3819;SDS011;1925;51.356;9.530;2023-04-28T14:33:03;14.67;;;11.70;;
3819;SDS011;1925;51.356;9.530;2023-04-28T14:35:29;13.73;;;12.00;;
3819;SDS011;1925;51.356;9.530;2023-04-28T14:37:55;12.80;;;10.50;;
3819;SDS011;1925;51.356;9.530;2023-04-28T14:40:22;12.95;;;11.00;;
3819;SDS011;1925;51.356;9.530;2023-04-28T14:42:48;14.97;;;11.03;;
3819;SDS011;1925;51.356;9.530;2023-04-28T14:45:14;12.77;;;10.53;;
3819;SDS011;1925;51.356;9.530;2023-04-28T14:47:40;12.13;;;10.93;;
3819;SDS011;1925;51.356;9.530;2023-04-28T14:50:06;13.27;;;10.77;;
3819;SDS011;1925;51.356;9.530;2023-04-28T14:52:32;13.53;;;11.93;;
3819;SDS011;1925;51.356;9.530;2023-04-28T14:54:59;12.33;;;10.73;;
3819;SDS011;1925;51.356;9.530;2023-04-28T14:57:25;11.97;;;10.77;;
3819;SDS011;1925;51.356;9.530;2023-04-28T14:59:51;11.20;;;10.00;;
3819;SDS011;1925;51.356;9.530;2023-04-28T15:02:18;11.17;;;9.97;;
3819;SDS011;1925;51.356;9.530;2023-04-28T15:04:45;12.70;;;10.00;;
3819;SDS011;1925;51.356;9.530;2023-04-28T15:07:12;11.87;;;10.50;;
3819;SDS011;1925;51.356;9.530;2023-04-28T15:09:38;16.43;;;14.80;;
3819;SDS011;1925;51.356;9.530;2023-04-28T15:12:04;22.00;;;15.50;;
3819;SDS011;1925;51.356;9.530;2023-04-28T15:14:30;22.97;;;19.13;;
3819;SDS011;1925;51.356;9.530;2023-04-28T15:16:56;18.13;;;14.40;;
3819;SDS011;1925;51.356;9.530;2023-04-28T15:19:23;27.20;;;19.20;;
3819;SDS011;1925;51.356;9.530;2023-04-28T15:21:49;20.17;;;15.70;;